Rotterdam The Hague Airport

EHRD · 南荷蘭省, 荷兰

罗盘
风向 的 风向 的 风向 到 风向 180° 鹿特丹海牙机场 6/24
风: 10 kt, 3 beaufort

6 kt

8 kt
改变
0 1.000 2.000 3.000 4.000 5.000
FEW 1.900 ft
METAR EHRD 041055Z AUTO 18010KT 150V220 9999 FEW019 16/11 Q1019 NOSIG

METAR 鹿特丹海牙机场 - EHRD/RTM

鹿特丹海牙机场是Rotterdam,荷兰中的中型机场。 该机场有一条跑道: 6/24. 该领域的国际民航组织标志是EHRD 它的国际航空运输协会代码是RTM.

这份报告是针对2022年10月4日 12:55, 当地时间在鹿特丹海牙机场进行的。

机场观察

风向为180°,速度为10 kt。 风向在150°和220°之间变化。

可见度为10 km 或者更多。

有几云在1.900 ft的高度。 没有观察到天花板。

温度和风寒是16 °C。 露点为11 °C,相对湿度为72%。 海平面上的气压为1019 hPa (QNH)。

白天

今天,太阳从07:48升起,在19:13降落。 这适用于鹿特丹海牙机场,世界夏令时可能有所不同。 当地时间与世界标准时间之间的时差为+2 小时。 夏令时目前正在进行中。

公司介绍

在这个机场,你可以找到飞行学校 和 跳伞中心。 这个机场上的公司有YouFly B.V, Rotterdamsche Aero Club, Vliegopleidingen Rotterdam 和 Skydive Rotterdam。

体会

到Vliegles.nl去找飞行课程,跳伞和其他飞行体验。 浏览页面,了解鹿特丹海牙机场附近所有可用的活动。 你也可以使用搜索功能来寻找你所在地附近的特定飞行课程、跳伞或其他飞行体验。

跑道

Id 标题 侧风 逆风 侧风 %
6/24 056°-236° 8 kt 6 kt 83 %

逆风成分最大的方向会被突出显示,并用于横风计算。 这并不一定意味着这个方向在使用。

乌云

1.900 ft FEW 几云

温度 & 天气

温度 16 °C
露点 11 °C
相对湿度 72%
Kp-index 2 (0-9)

白天

日出
07:48
中午
13:30
日落
19:13 (6h 02m)

小工具

你想在你的网站上有一个关于鹿特丹海牙机场的当前航空天气(METAR)的小部件吗?

</> 显示HTML代码

我们和第三方通过cookies跟踪您在我们网站上的上网行为。如果您继续,我们认为您同意我们的cookie政策。 了解更多